sensor_id;sensor_type;location;lat;lon;timestamp;temperature;humidity
51383;DHT22;37475;43.358;1.248;2022-07-29T00:00:58;20.80;80.40
51383;DHT22;37475;43.358;1.248;2022-07-29T00:03:24;20.80;80.80
51383;DHT22;37475;43.358;1.248;2022-07-29T00:05:50;20.80;80.20
51383;DHT22;37475;43.358;1.248;2022-07-29T00:08:18;20.90;80.00
51383;DHT22;37475;43.358;1.248;2022-07-29T00:10:44;21.00;80.30
51383;DHT22;37475;43.358;1.248;2022-07-29T00:13:10;20.90;79.80
51383;DHT22;37475;43.358;1.248;2022-07-29T00:15:36;20.80;80.20
51383;DHT22;37475;43.358;1.248;2022-07-29T00:18:01;20.70;81.30
51383;DHT22;37475;43.358;1.248;2022-07-29T00:20:27;20.60;81.70
51383;DHT22;37475;43.358;1.248;2022-07-29T00:22:53;20.60;81.80
51383;DHT22;37475;43.358;1.248;2022-07-29T00:25:19;20.50;81.70
51383;DHT22;37475;43.358;1.248;2022-07-29T00:27:45;20.60;81.30
51383;DHT22;37475;43.358;1.248;2022-07-29T00:30:12;20.60;80.90
51383;DHT22;37475;43.358;1.248;2022-07-29T00:32:37;20.60;81.00
51383;DHT22;37475;43.358;1.248;2022-07-29T00:35:04;20.30;81.90
51383;DHT22;37475;43.358;1.248;2022-07-29T00:37:49;20.50;80.60
51383;DHT22;37475;43.358;1.248;2022-07-29T00:40:15;20.60;81.30
51383;DHT22;37475;43.358;1.248;2022-07-29T00:42:42;20.60;80.70
51383;DHT22;37475;43.358;1.248;2022-07-29T00:45:12;20.50;80.10
51383;DHT22;37475;43.358;1.248;2022-07-29T00:47:39;20.50;80.70
51383;DHT22;37475;43.358;1.248;2022-07-29T00:50:07;20.30;81.60
51383;DHT22;37475;43.358;1.248;2022-07-29T00:52:36;20.30;80.80
51383;DHT22;37475;43.358;1.248;2022-07-29T00:55:08;20.40;80.30
51383;DHT22;37475;43.358;1.248;2022-07-29T00:57:36;20.40;80.20
51383;DHT22;37475;43.358;1.248;2022-07-29T01:00:07;20.40;80.30
51383;DHT22;37475;43.358;1.248;2022-07-29T01:02:35;20.30;81.10
51383;DHT22;37475;43.358;1.248;2022-07-29T01:05:02;20.20;81.70
51383;DHT22;37475;43.358;1.248;2022-07-29T01:07:30;20.30;81.20
51383;DHT22;37475;43.358;1.248;2022-07-29T01:09:56;20.30;81.20
51383;DHT22;37475;43.358;1.248;2022-07-29T01:12:25;20.20;81.30
51383;DHT22;37475;43.358;1.248;2022-07-29T01:14:53;20.30;81.40
51383;DHT22;37475;43.358;1.248;2022-07-29T01:30:59;20.10;79.80
51383;DHT22;37475;43.358;1.248;2022-07-29T01:33:26;20.00;80.40
51383;DHT22;37475;43.358;1.248;2022-07-29T01:36:16;20.00;79.00
51383;DHT22;37475;43.358;1.248;2022-07-29T01:38:54;20.00;79.40
51383;DHT22;37475;43.358;1.248;2022-07-29T01:41:25;20.10;79.40
51383;DHT22;37475;43.358;1.248;2022-07-29T01:44:31;20.10;79.40
51383;DHT22;37475;43.358;1.248;2022-07-29T01:47:01;20.00;79.80
51383;DHT22;37475;43.358;1.248;2022-07-29T01:49:35;20.00;78.40
51383;DHT22;37475;43.358;1.248;2022-07-29T01:52:13;20.10;78.80
51383;DHT22;37475;43.358;1.248;2022-07-29T01:54:53;20.10;78.60
51383;DHT22;37475;43.358;1.248;2022-07-29T01:57:28;20.10;78.40
51383;DHT22;37475;43.358;1.248;2022-07-29T01:59:56;20.00;78.90
51383;DHT22;37475;43.358;1.248;2022-07-29T02:02:23;20.10;78.70
51383;DHT22;37475;43.358;1.248;2022-07-29T02:04:50;20.10;78.20
51383;DHT22;37475;43.358;1.248;2022-07-29T02:07:19;20.00;78.20
51383;DHT22;37475;43.358;1.248;2022-07-29T02:09:50;20.00;78.80
51383;DHT22;37475;43.358;1.248;2022-07-29T02:12:18;20.00;79.10
51383;DHT22;37475;43.358;1.248;2022-07-29T02:14:51;19.90;79.70
51383;DHT22;37475;43.358;1.248;2022-07-29T02:17:33;19.90;80.20
51383;DHT22;37475;43.358;1.248;2022-07-29T02:20:03;19.80;80.90
51383;DHT22;37475;43.358;1.248;2022-07-29T02:22:33;19.80;81.20
51383;DHT22;37475;43.358;1.248;2022-07-29T02:25:01;19.80;81.80
51383;DHT22;37475;43.358;1.248;2022-07-29T02:27:28;19.80;82.60
51383;DHT22;37475;43.358;1.248;2022-07-29T02:29:55;19.70;82.20
51383;DHT22;37475;43.358;1.248;2022-07-29T02:32:24;19.80;82.00
51383;DHT22;37475;43.358;1.248;2022-07-29T02:34:52;19.80;81.40
51383;DHT22;37475;43.358;1.248;2022-07-29T02:37:19;19.80;81.40
51383;DHT22;37475;43.358;1.248;2022-07-29T02:39:47;19.80;81.10
51383;DHT22;37475;43.358;1.248;2022-07-29T02:42:16;19.70;81.30
51383;DHT22;37475;43.358;1.248;2022-07-29T02:44:43;19.80;81.20
51383;DHT22;37475;43.358;1.248;2022-07-29T02:47:33;19.90;80.30
51383;DHT22;37475;43.358;1.248;2022-07-29T02:50:06;20.00;80.70
51383;DHT22;37475;43.358;1.248;2022-07-29T02:55:34;20.20;81.90
51383;DHT22;37475;43.358;1.248;2022-07-29T03:00:56;19.60;84.90
51383;DHT22;37475;43.358;1.248;2022-07-29T03:03:29;19.50;85.30
51383;DHT22;37475;43.358;1.248;2022-07-29T03:05:56;19.40;85.90
51383;DHT22;37475;43.358;1.248;2022-07-29T03:08:24;19.20;85.90
51383;DHT22;37475;43.358;1.248;2022-07-29T03:10:50;19.20;85.10
51383;DHT22;37475;43.358;1.248;2022-07-29T03:13:17;19.30;85.10
51383;DHT22;37475;43.358;1.248;2022-07-29T03:15:44;19.10;86.50
51383;DHT22;37475;43.358;1.248;2022-07-29T03:18:11;19.00;87.50
51383;DHT22;37475;43.358;1.248;2022-07-29T03:20:38;18.90;87.80
51383;DHT22;37475;43.358;1.248;2022-07-29T03:23:05;18.80;87.70
51383;DHT22;37475;43.358;1.248;2022-07-29T03:25:30;18.80;88.50
51383;DHT22;37475;43.358;1.248;2022-07-29T03:27:56;18.70;88.50
51383;DHT22;37475;43.358;1.248;2022-07-29T03:30:23;18.70;88.80
51383;DHT22;37475;43.358;1.248;2022-07-29T03:32:50;18.60;89.90
51383;DHT22;37475;43.358;1.248;2022-07-29T03:35:16;18.60;90.40
51383;DHT22;37475;43.358;1.248;2022-07-29T03:37:43;18.50;90.30
51383;DHT22;37475;43.358;1.248;2022-07-29T03:40:13;18.60;90.00
51383;DHT22;37475;43.358;1.248;2022-07-29T03:42:41;18.70;89.90
51383;DHT22;37475;43.358;1.248;2022-07-29T03:45:10;18.60;90.00
51383;DHT22;37475;43.358;1.248;2022-07-29T03:47:42;18.40;90.60
51383;DHT22;37475;43.358;1.248;2022-07-29T03:50:12;18.10;91.00
51383;DHT22;37475;43.358;1.248;2022-07-29T03:52:40;18.10;91.30
51383;DHT22;37475;43.358;1.248;2022-07-29T03:55:07;18.10;91.60
51383;DHT22;37475;43.358;1.248;2022-07-29T03:57:35;18.00;91.30
51383;DHT22;37475;43.358;1.248;2022-07-29T04:00:03;18.00;91.20
51383;DHT22;37475;43.358;1.248;2022-07-29T04:02:31;17.90;90.80
51383;DHT22;37475;43.358;1.248;2022-07-29T04:04:58;18.00;90.80
51383;DHT22;37475;43.358;1.248;2022-07-29T04:07:24;17.90;90.80
51383;DHT22;37475;43.358;1.248;2022-07-29T04:09:50;17.90;91.20
51383;DHT22;37475;43.358;1.248;2022-07-29T04:12:16;17.90;91.00
51383;DHT22;37475;43.358;1.248;2022-07-29T04:14:41;17.90;90.60
51383;DHT22;37475;43.358;1.248;2022-07-29T04:17:07;18.00;91.30
51383;DHT22;37475;43.358;1.248;2022-07-29T04:19:33;18.00;91.60
51383;DHT22;37475;43.358;1.248;2022-07-29T04:22:00;17.90;91.90
51383;DHT22;37475;43.358;1.248;2022-07-29T04:24:26;17.90;92.10
51383;DHT22;37475;43.358;1.248;2022-07-29T04:26:52;17.90;91.80
51383;DHT22;37475;43.358;1.248;2022-07-29T04:29:18;17.90;91.80
51383;DHT22;37475;43.358;1.248;2022-07-29T04:31:45;18.00;91.50
51383;DHT22;37475;43.358;1.248;2022-07-29T04:34:11;18.00;91.80
51383;DHT22;37475;43.358;1.248;2022-07-29T04:36:38;18.00;91.90
51383;DHT22;37475;43.358;1.248;2022-07-29T04:39:04;18.00;91.50
51383;DHT22;37475;43.358;1.248;2022-07-29T04:41:30;18.10;91.50
51383;DHT22;37475;43.358;1.248;2022-07-29T04:43:56;18.10;91.10
51383;DHT22;37475;43.358;1.248;2022-07-29T04:46:22;18.20;91.00
51383;DHT22;37475;43.358;1.248;2022-07-29T04:48:48;18.20;90.90
51383;DHT22;37475;43.358;1.248;2022-07-29T04:51:15;18.10;91.30
51383;DHT22;37475;43.358;1.248;2022-07-29T04:53:41;18.20;91.10
51383;DHT22;37475;43.358;1.248;2022-07-29T04:56:06;18.20;91.50
51383;DHT22;37475;43.358;1.248;2022-07-29T04:58:36;18.20;91.50
51383;DHT22;37475;43.358;1.248;2022-07-29T05:01:02;18.10;91.80
51383;DHT22;37475;43.358;1.248;2022-07-29T05:03:29;18.10;92.10
51383;DHT22;37475;43.358;1.248;2022-07-29T05:05:55;18.20;92.10
51383;DHT22;37475;43.358;1.248;2022-07-29T05:08:20;18.10;92.50
51383;DHT22;37475;43.358;1.248;2022-07-29T05:10:46;18.10;92.90
51383;DHT22;37475;43.358;1.248;2022-07-29T05:13:12;18.00;93.40
51383;DHT22;37475;43.358;1.248;2022-07-29T05:15:38;17.90;93.40
51383;DHT22;37475;43.358;1.248;2022-07-29T05:18:04;17.90;93.70
51383;DHT22;37475;43.358;1.248;2022-07-29T05:20:31;17.90;93.80
51383;DHT22;37475;43.358;1.248;2022-07-29T05:22:59;17.80;93.80
51383;DHT22;37475;43.358;1.248;2022-07-29T05:25:26;17.60;94.00
51383;DHT22;37475;43.358;1.248;2022-07-29T05:27:53;17.60;94.10
51383;DHT22;37475;43.358;1.248;2022-07-29T05:30:20;17.60;94.00
51383;DHT22;37475;43.358;1.248;2022-07-29T05:32:46;17.60;94.20
51383;DHT22;37475;43.358;1.248;2022-07-29T05:35:13;17.60;94.30
51383;DHT22;37475;43.358;1.248;2022-07-29T05:37:39;17.50;94.40
51383;DHT22;37475;43.358;1.248;2022-07-29T05:40:06;17.60;94.50
51383;DHT22;37475;43.358;1.248;2022-07-29T05:42:32;17.60;94.40
51383;DHT22;37475;43.358;1.248;2022-07-29T05:44:59;17.70;94.20
51383;DHT22;37475;43.358;1.248;2022-07-29T05:47:26;17.80;94.10
51383;DHT22;37475;43.358;1.248;2022-07-29T05:49:52;18.00;94.20
51383;DHT22;37475;43.358;1.248;2022-07-29T05:52:19;17.90;93.90
51383;DHT22;37475;43.358;1.248;2022-07-29T05:54:45;17.70;93.90
51383;DHT22;37475;43.358;1.248;2022-07-29T05:57:18;17.60;94.70
51383;DHT22;37475;43.358;1.248;2022-07-29T05:59:47;17.60;94.70
51383;DHT22;37475;43.358;1.248;2022-07-29T06:02:14;17.70;94.50
51383;DHT22;37475;43.358;1.248;2022-07-29T06:04:40;17.80;94.60
51383;DHT22;37475;43.358;1.248;2022-07-29T06:07:06;17.90;94.70
51383;DHT22;37475;43.358;1.248;2022-07-29T06:09:32;17.90;94.70
51383;DHT22;37475;43.358;1.248;2022-07-29T06:11:58;17.80;94.40
51383;DHT22;37475;43.358;1.248;2022-07-29T06:14:25;17.80;94.30
51383;DHT22;37475;43.358;1.248;2022-07-29T06:16:52;17.80;94.30
51383;DHT22;37475;43.358;1.248;2022-07-29T06:19:18;17.70;94.30
51383;DHT22;37475;43.358;1.248;2022-07-29T06:21:45;17.90;94.20
51383;DHT22;37475;43.358;1.248;2022-07-29T06:24:12;17.90;94.10
51383;DHT22;37475;43.358;1.248;2022-07-29T06:26:39;17.90;93.70
51383;DHT22;37475;43.358;1.248;2022-07-29T06:29:06;17.80;93.70
51383;DHT22;37475;43.358;1.248;2022-07-29T06:31:32;17.90;93.90
51383;DHT22;37475;43.358;1.248;2022-07-29T06:33:58;17.90;94.10
51383;DHT22;37475;43.358;1.248;2022-07-29T06:36:24;17.80;94.40
51383;DHT22;37475;43.358;1.248;2022-07-29T06:38:50;17.60;94.30
51383;DHT22;37475;43.358;1.248;2022-07-29T06:41:16;17.60;94.30
51383;DHT22;37475;43.358;1.248;2022-07-29T06:43:43;17.60;94.50
51383;DHT22;37475;43.358;1.248;2022-07-29T06:46:12;17.60;94.70
51383;DHT22;37475;43.358;1.248;2022-07-29T06:48:40;17.50;94.70
51383;DHT22;37475;43.358;1.248;2022-07-29T06:51:08;17.60;94.80
51383;DHT22;37475;43.358;1.248;2022-07-29T06:53:35;17.60;94.60
51383;DHT22;37475;43.358;1.248;2022-07-29T06:56:02;17.70;94.60
51383;DHT22;37475;43.358;1.248;2022-07-29T06:58:29;17.70;94.50
51383;DHT22;37475;43.358;1.248;2022-07-29T07:00:56;17.90;94.40
51383;DHT22;37475;43.358;1.248;2022-07-29T07:03:23;17.90;94.30
51383;DHT22;37475;43.358;1.248;2022-07-29T07:05:50;18.10;94.30
51383;DHT22;37475;43.358;1.248;2022-07-29T07:08:17;18.10;94.20
51383;DHT22;37475;43.358;1.248;2022-07-29T07:10:45;18.20;94.00
51383;DHT22;37475;43.358;1.248;2022-07-29T07:13:11;18.20;94.00
51383;DHT22;37475;43.358;1.248;2022-07-29T07:15:37;18.30;93.80
51383;DHT22;37475;43.358;1.248;2022-07-29T07:18:04;18.30;93.60
51383;DHT22;37475;43.358;1.248;2022-07-29T07:20:34;18.20;93.70
51383;DHT22;37475;43.358;1.248;2022-07-29T07:23:00;18.00;93.60
51383;DHT22;37475;43.358;1.248;2022-07-29T07:25:26;18.00;93.80
51383;DHT22;37475;43.358;1.248;2022-07-29T07:27:52;18.00;94.10
51383;DHT22;37475;43.358;1.248;2022-07-29T07:30:18;18.10;94.30
51383;DHT22;37475;43.358;1.248;2022-07-29T07:32:44;18.10;94.20
51383;DHT22;37475;43.358;1.248;2022-07-29T07:35:10;18.10;94.40
51383;DHT22;37475;43.358;1.248;2022-07-29T07:37:37;18.10;94.30
51383;DHT22;37475;43.358;1.248;2022-07-29T07:40:04;18.00;94.30
51383;DHT22;37475;43.358;1.248;2022-07-29T07:42:30;18.00;94.40
51383;DHT22;37475;43.358;1.248;2022-07-29T07:44:56;18.00;94.40
51383;DHT22;37475;43.358;1.248;2022-07-29T07:47:22;18.20;94.40
51383;DHT22;37475;43.358;1.248;2022-07-29T07:49:50;18.20;94.20
51383;DHT22;37475;43.358;1.248;2022-07-29T07:52:17;18.10;94.00
51383;DHT22;37475;43.358;1.248;2022-07-29T07:54:44;18.10;93.90
51383;DHT22;37475;43.358;1.248;2022-07-29T07:57:13;18.10;93.70
51383;DHT22;37475;43.358;1.248;2022-07-29T07:59:39;18.20;93.50
51383;DHT22;37475;43.358;1.248;2022-07-29T08:02:06;18.20;93.80
51383;DHT22;37475;43.358;1.248;2022-07-29T08:04:32;18.20;94.10
51383;DHT22;37475;43.358;1.248;2022-07-29T08:06:58;18.10;94.10
51383;DHT22;37475;43.358;1.248;2022-07-29T08:09:27;18.20;94.20
51383;DHT22;37475;43.358;1.248;2022-07-29T08:11:54;18.20;94.00
51383;DHT22;37475;43.358;1.248;2022-07-29T08:14:20;18.30;94.30
51383;DHT22;37475;43.358;1.248;2022-07-29T08:16:46;18.20;94.30
51383;DHT22;37475;43.358;1.248;2022-07-29T08:19:12;18.10;94.30
51383;DHT22;37475;43.358;1.248;2022-07-29T08:21:38;18.10;94.70
51383;DHT22;37475;43.358;1.248;2022-07-29T08:24:05;18.10;95.10
51383;DHT22;37475;43.358;1.248;2022-07-29T08:26:50;17.90;94.80
51383;DHT22;37475;43.358;1.248;2022-07-29T08:29:16;17.90;95.00
51383;DHT22;37475;43.358;1.248;2022-07-29T08:31:42;17.90;95.00
51383;DHT22;37475;43.358;1.248;2022-07-29T08:34:08;17.90;94.90
51383;DHT22;37475;43.358;1.248;2022-07-29T08:36:34;17.90;95.00
51383;DHT22;37475;43.358;1.248;2022-07-29T08:39:01;17.90;95.00
51383;DHT22;37475;43.358;1.248;2022-07-29T08:41:27;17.90;94.90
51383;DHT22;37475;43.358;1.248;2022-07-29T08:43:53;18.00;94.90
51383;DHT22;37475;43.358;1.248;2022-07-29T08:46:20;18.10;94.80
51383;DHT22;37475;43.358;1.248;2022-07-29T08:48:47;18.10;94.70
51383;DHT22;37475;43.358;1.248;2022-07-29T08:51:20;18.00;94.40
51383;DHT22;37475;43.358;1.248;2022-07-29T08:53:48;18.20;94.40
51383;DHT22;37475;43.358;1.248;2022-07-29T08:56:18;18.30;94.10
51383;DHT22;37475;43.358;1.248;2022-07-29T08:58:46;18.40;94.00
51383;DHT22;37475;43.358;1.248;2022-07-29T09:01:17;18.50;94.00
51383;DHT22;37475;43.358;1.248;2022-07-29T09:03:47;18.40;93.60
51383;DHT22;37475;43.358;1.248;2022-07-29T09:06:14;18.50;93.60
51383;DHT22;37475;43.358;1.248;2022-07-29T09:08:41;18.60;93.40
51383;DHT22;37475;43.358;1.248;2022-07-29T09:11:07;18.70;93.20
51383;DHT22;37475;43.358;1.248;2022-07-29T09:13:34;18.90;93.40
51383;DHT22;37475;43.358;1.248;2022-07-29T09:16:00;18.80;93.40
51383;DHT22;37475;43.358;1.248;2022-07-29T09:18:37;18.70;93.40
51383;DHT22;37475;43.358;1.248;2022-07-29T09:21:09;18.40;92.60
51383;DHT22;37475;43.358;1.248;2022-07-29T09:24:08;18.50;92.80
51383;DHT22;37475;43.358;1.248;2022-07-29T09:26:41;18.60;92.60
51383;DHT22;37475;43.358;1.248;2022-07-29T09:31:44;18.60;91.80
51383;DHT22;37475;43.358;1.248;2022-07-29T09:34:12;18.70;92.00
51383;DHT22;37475;43.358;1.248;2022-07-29T09:36:50;19.00;92.00
51383;DHT22;37475;43.358;1.248;2022-07-29T09:39:28;19.30;91.80
51383;DHT22;37475;43.358;1.248;2022-07-29T09:41:56;19.40;91.50
51383;DHT22;37475;43.358;1.248;2022-07-29T09:44:24;19.50;90.90
51383;DHT22;37475;43.358;1.248;2022-07-29T09:47:02;19.40;90.40
51383;DHT22;37475;43.358;1.248;2022-07-29T09:49:32;19.50;90.80
51383;DHT22;37475;43.358;1.248;2022-07-29T09:54:30;19.80;89.40
51383;DHT22;37475;43.358;1.248;2022-07-29T09:57:09;19.90;90.20
51383;DHT22;37475;43.358;1.248;2022-07-29T10:02:30;19.80;88.90
51383;DHT22;37475;43.358;1.248;2022-07-29T10:04:57;19.60;87.30
51383;DHT22;37475;43.358;1.248;2022-07-29T10:07:24;19.70;88.20
51383;DHT22;37475;43.358;1.248;2022-07-29T10:09:56;19.70;88.70
51383;DHT22;37475;43.358;1.248;2022-07-29T10:12:22;20.00;88.40
51383;DHT22;37475;43.358;1.248;2022-07-29T10:14:49;20.30;88.60
51383;DHT22;37475;43.358;1.248;2022-07-29T10:17:17;20.60;88.80
51383;DHT22;37475;43.358;1.248;2022-07-29T10:19:43;20.80;88.60
51383;DHT22;37475;43.358;1.248;2022-07-29T10:22:10;20.90;87.20
51383;DHT22;37475;43.358;1.248;2022-07-29T10:24:38;21.10;85.40
51383;DHT22;37475;43.358;1.248;2022-07-29T10:27:06;21.00;86.60
51383;DHT22;37475;43.358;1.248;2022-07-29T10:29:33;21.10;86.50
51383;DHT22;37475;43.358;1.248;2022-07-29T10:35:39;21.00;83.90
51383;DHT22;37475;43.358;1.248;2022-07-29T10:44:09;21.80;84.70
51383;DHT22;37475;43.358;1.248;2022-07-29T10:46:40;21.80;84.50
51383;DHT22;37475;43.358;1.248;2022-07-29T10:49:08;21.80;84.90
51383;DHT22;37475;43.358;1.248;2022-07-29T10:54:53;21.80;80.60
51383;DHT22;37475;43.358;1.248;2022-07-29T10:57:25;22.10;81.60
51383;DHT22;37475;43.358;1.248;2022-07-29T11:07:25;22.80;79.70
51383;DHT22;37475;43.358;1.248;2022-07-29T11:15:12;22.20;79.10
51383;DHT22;37475;43.358;1.248;2022-07-29T11:20:45;22.70;79.20
51383;DHT22;37475;43.358;1.248;2022-07-29T11:31:47;23.20;74.70
51383;DHT22;37475;43.358;1.248;2022-07-29T11:50:16;24.40;71.10
51383;DHT22;37475;43.358;1.248;2022-07-29T11:52:46;24.00;73.10
51383;DHT22;37475;43.358;1.248;2022-07-29T11:55:17;23.80;73.50
51383;DHT22;37475;43.358;1.248;2022-07-29T11:58:10;24.10;73.50
51383;DHT22;37475;43.358;1.248;2022-07-29T12:00:39;24.80;70.90
51383;DHT22;37475;43.358;1.248;2022-07-29T12:03:07;25.30;67.20
51383;DHT22;37475;43.358;1.248;2022-07-29T12:05:37;25.70;67.50
51383;DHT22;37475;43.358;1.248;2022-07-29T12:08:08;25.60;64.80
51383;DHT22;37475;43.358;1.248;2022-07-29T12:10:45;25.60;63.70
51383;DHT22;37475;43.358;1.248;2022-07-29T12:13:13;25.60;65.70
51383;DHT22;37475;43.358;1.248;2022-07-29T12:15:41;25.50;67.10
51383;DHT22;37475;43.358;1.248;2022-07-29T12:18:14;25.60;66.10
51383;DHT22;37475;43.358;1.248;2022-07-29T12:20:42;25.50;65.70
51383;DHT22;37475;43.358;1.248;2022-07-29T12:23:09;25.30;66.90
51383;DHT22;37475;43.358;1.248;2022-07-29T12:25:38;25.00;67.80
51383;DHT22;37475;43.358;1.248;2022-07-29T12:28:07;24.10;70.80
51383;DHT22;37475;43.358;1.248;2022-07-29T12:30:48;23.80;72.90
51383;DHT22;37475;43.358;1.248;2022-07-29T12:33:27;23.50;72.90
51383;DHT22;37475;43.358;1.248;2022-07-29T12:35:57;23.60;72.40
51383;DHT22;37475;43.358;1.248;2022-07-29T12:38:24;23.20;73.40
51383;DHT22;37475;43.358;1.248;2022-07-29T12:40:52;23.40;73.20
51383;DHT22;37475;43.358;1.248;2022-07-29T12:43:21;23.40;73.70
51383;DHT22;37475;43.358;1.248;2022-07-29T12:45:50;23.40;73.50
51383;DHT22;37475;43.358;1.248;2022-07-29T12:48:35;23.20;74.50
51383;DHT22;37475;43.358;1.248;2022-07-29T12:51:04;23.20;73.50
51383;DHT22;37475;43.358;1.248;2022-07-29T12:53:31;23.00;75.60
51383;DHT22;37475;43.358;1.248;2022-07-29T12:55:58;22.90;77.30
51383;DHT22;37475;43.358;1.248;2022-07-29T12:58:38;22.70;78.30
51383;DHT22;37475;43.358;1.248;2022-07-29T13:01:10;22.60;79.70
51383;DHT22;37475;43.358;1.248;2022-07-29T13:03:44;22.50;81.20
51383;DHT22;37475;43.358;1.248;2022-07-29T13:06:44;22.00;82.40
51383;DHT22;37475;43.358;1.248;2022-07-29T13:09:12;21.60;83.20
51383;DHT22;37475;43.358;1.248;2022-07-29T13:11:46;21.40;84.80
51383;DHT22;37475;43.358;1.248;2022-07-29T13:14:34;21.20;86.00
51383;DHT22;37475;43.358;1.248;2022-07-29T13:17:13;21.30;85.40
51383;DHT22;37475;43.358;1.248;2022-07-29T13:19:47;21.30;86.20
51383;DHT22;37475;43.358;1.248;2022-07-29T13:22:22;21.30;85.80
51383;DHT22;37475;43.358;1.248;2022-07-29T13:24:54;21.50;86.80
51383;DHT22;37475;43.358;1.248;2022-07-29T13:27:26;21.60;86.30
51383;DHT22;37475;43.358;1.248;2022-07-29T13:29:55;21.90;85.90
51383;DHT22;37475;43.358;1.248;2022-07-29T13:32:24;21.80;84.80
51383;DHT22;37475;43.358;1.248;2022-07-29T13:34:51;21.80;84.40
51383;DHT22;37475;43.358;1.248;2022-07-29T13:37:17;22.00;84.80
51383;DHT22;37475;43.358;1.248;2022-07-29T13:39:44;22.00;84.70
51383;DHT22;37475;43.358;1.248;2022-07-29T13:42:10;22.00;82.20
51383;DHT22;37475;43.358;1.248;2022-07-29T13:44:38;22.00;81.60
51383;DHT22;37475;43.358;1.248;2022-07-29T13:47:05;22.10;81.60
51383;DHT22;37475;43.358;1.248;2022-07-29T13:49:31;22.00;82.20
51383;DHT22;37475;43.358;1.248;2022-07-29T13:51:57;22.00;81.80
51383;DHT22;37475;43.358;1.248;2022-07-29T13:54:23;21.90;82.40
51383;DHT22;37475;43.358;1.248;2022-07-29T13:56:50;21.90;81.80
51383;DHT22;37475;43.358;1.248;2022-07-29T13:59:16;22.00;81.50
51383;DHT22;37475;43.358;1.248;2022-07-29T14:01:42;22.10;80.90
51383;DHT22;37475;43.358;1.248;2022-07-29T14:04:09;22.50;80.30
51383;DHT22;37475;43.358;1.248;2022-07-29T14:06:36;22.60;80.80
51383;DHT22;37475;43.358;1.248;2022-07-29T14:09:03;22.30;79.80
51383;DHT22;37475;43.358;1.248;2022-07-29T14:11:34;22.10;81.20
51383;DHT22;37475;43.358;1.248;2022-07-29T14:14:01;22.00;81.20
51383;DHT22;37475;43.358;1.248;2022-07-29T14:16:27;22.00;81.70
51383;DHT22;37475;43.358;1.248;2022-07-29T14:18:53;22.20;81.20
51383;DHT22;37475;43.358;1.248;2022-07-29T14:21:18;22.70;81.10
51383;DHT22;37475;43.358;1.248;2022-07-29T14:23:44;22.90;79.40
51383;DHT22;37475;43.358;1.248;2022-07-29T14:26:10;23.00;78.30
51383;DHT22;37475;43.358;1.248;2022-07-29T14:28:36;22.90;77.80
51383;DHT22;37475;43.358;1.248;2022-07-29T14:31:02;23.20;77.40
51383;DHT22;37475;43.358;1.248;2022-07-29T14:33:27;23.50;76.50
51383;DHT22;37475;43.358;1.248;2022-07-29T14:35:53;23.80;73.80
51383;DHT22;37475;43.358;1.248;2022-07-29T14:38:19;23.70;73.80
51383;DHT22;37475;43.358;1.248;2022-07-29T14:40:45;23.90;73.50
51383;DHT22;37475;43.358;1.248;2022-07-29T14:43:12;24.10;72.70
51383;DHT22;37475;43.358;1.248;2022-07-29T14:45:39;24.60;70.50
51383;DHT22;37475;43.358;1.248;2022-07-29T14:48:06;24.60;70.40
51383;DHT22;37475;43.358;1.248;2022-07-29T14:50:32;24.70;70.20
51383;DHT22;37475;43.358;1.248;2022-07-29T14:53:01;24.60;69.90
51383;DHT22;37475;43.358;1.248;2022-07-29T14:55:27;24.40;69.20
51383;DHT22;37475;43.358;1.248;2022-07-29T14:57:53;24.50;70.80
51383;DHT22;37475;43.358;1.248;2022-07-29T15:00:19;25.00;68.50
51383;DHT22;37475;43.358;1.248;2022-07-29T15:02:46;25.10;68.70
51383;DHT22;37475;43.358;1.248;2022-07-29T15:05:13;24.30;70.10
51383;DHT22;37475;43.358;1.248;2022-07-29T15:07:39;24.30;71.00
51383;DHT22;37475;43.358;1.248;2022-07-29T15:10:05;24.60;68.60
51383;DHT22;37475;43.358;1.248;2022-07-29T15:12:32;24.40;69.60
51383;DHT22;37475;43.358;1.248;2022-07-29T15:14:58;24.10;70.50
51383;DHT22;37475;43.358;1.248;2022-07-29T15:17:24;24.20;69.60
51383;DHT22;37475;43.358;1.248;2022-07-29T15:19:50;24.40;70.30
51383;DHT22;37475;43.358;1.248;2022-07-29T15:22:16;24.20;70.00
51383;DHT22;37475;43.358;1.248;2022-07-29T15:24:42;23.90;70.50
51383;DHT22;37475;43.358;1.248;2022-07-29T15:27:08;24.00;70.40
51383;DHT22;37475;43.358;1.248;2022-07-29T15:29:40;24.10;70.10
51383;DHT22;37475;43.358;1.248;2022-07-29T15:32:07;24.00;71.90
51383;DHT22;37475;43.358;1.248;2022-07-29T15:34:33;24.00;70.10
51383;DHT22;37475;43.358;1.248;2022-07-29T15:36:59;24.00;70.40
51383;DHT22;37475;43.358;1.248;2022-07-29T15:39:26;23.60;70.80
51383;DHT22;37475;43.358;1.248;2022-07-29T15:41:51;23.90;70.90
51383;DHT22;37475;43.358;1.248;2022-07-29T15:44:18;24.00;68.90
51383;DHT22;37475;43.358;1.248;2022-07-29T15:46:45;23.70;69.20
51383;DHT22;37475;43.358;1.248;2022-07-29T15:49:31;23.70;69.80
51383;DHT22;37475;43.358;1.248;2022-07-29T15:52:07;23.80;71.40
51383;DHT22;37475;43.358;1.248;2022-07-29T15:54:35;23.80;72.20
51383;DHT22;37475;43.358;1.248;2022-07-29T15:57:03;23.70;70.80
51383;DHT22;37475;43.358;1.248;2022-07-29T15:59:29;23.50;71.70
51383;DHT22;37475;43.358;1.248;2022-07-29T16:01:55;23.40;72.70
51383;DHT22;37475;43.358;1.248;2022-07-29T16:04:22;23.30;72.90
51383;DHT22;37475;43.358;1.248;2022-07-29T16:06:48;23.20;72.10
51383;DHT22;37475;43.358;1.248;2022-07-29T16:09:16;23.10;72.50
51383;DHT22;37475;43.358;1.248;2022-07-29T16:11:42;23.20;73.20
51383;DHT22;37475;43.358;1.248;2022-07-29T16:14:09;23.30;73.00
51383;DHT22;37475;43.358;1.248;2022-07-29T16:16:38;23.30;72.70
51383;DHT22;37475;43.358;1.248;2022-07-29T16:19:04;23.10;73.70
51383;DHT22;37475;43.358;1.248;2022-07-29T16:21:31;23.30;73.50
51383;DHT22;37475;43.358;1.248;2022-07-29T16:23:58;23.40;73.40
51383;DHT22;37475;43.358;1.248;2022-07-29T16:26:25;23.50;72.40
51383;DHT22;37475;43.358;1.248;2022-07-29T16:28:51;23.70;72.90
51383;DHT22;37475;43.358;1.248;2022-07-29T16:31:17;23.80;71.60
51383;DHT22;37475;43.358;1.248;2022-07-29T16:33:46;23.80;71.20
51383;DHT22;37475;43.358;1.248;2022-07-29T16:36:12;24.00;70.20
51383;DHT22;37475;43.358;1.248;2022-07-29T16:38:38;24.30;70.10
51383;DHT22;37475;43.358;1.248;2022-07-29T16:41:06;24.10;70.90
51383;DHT22;37475;43.358;1.248;2022-07-29T16:43:33;24.00;70.00
51383;DHT22;37475;43.358;1.248;2022-07-29T16:45:59;24.00;69.70
51383;DHT22;37475;43.358;1.248;2022-07-29T16:48:24;23.60;70.10
51383;DHT22;37475;43.358;1.248;2022-07-29T16:50:50;23.50;71.30
51383;DHT22;37475;43.358;1.248;2022-07-29T16:53:16;23.60;71.80
51383;DHT22;37475;43.358;1.248;2022-07-29T16:55:42;23.70;72.40
51383;DHT22;37475;43.358;1.248;2022-07-29T16:58:10;23.60;74.40